Terminal Aerodrome Forecast
Issued by NWS

Home | Current Version | Previous Version | Text Only | Print | Product List | Glossary On
Versions: 1 2 3 4 5 6 7 8 9 10 11 12 13 14 15 16
000
FTUS44 KEPZ 050500 RRA
TAFDMN
TAF
KDMN 050545Z 0506/0606 36010KT P6SM SCT060 SCT250
     FM050900 05012G22KT P6SM SCT030 BKN100
     FM051500 07012G22KT P6SM SCT025 SCT050
     FM051800 10010G18KT P6SM SCT030
     FM060000 11007KT P6SM FEW030=

USA.gov is the U.S. government's official web portal to all federal, state and local government web resources and services.